createdAt,value
2022-10-14T00:01:26.998Z,98431.25
2022-10-14T00:03:56.853Z,98428.50
2022-10-14T00:06:29.472Z,98433.69
2022-10-14T00:09:00.596Z,98426.66
2022-10-14T00:11:32.256Z,98423.13
2022-10-14T00:14:04.149Z,98422.28
2022-10-14T00:16:36.605Z,98429.97
2022-10-14T00:19:07.039Z,98423.94
2022-10-14T00:21:39.048Z,98426.47
2022-10-14T00:24:12.092Z,98422.28
2022-10-14T00:26:41.634Z,98428.50
2022-10-14T00:29:14.382Z,98420.81
2022-10-14T00:31:42.928Z,98419.16
2022-10-14T00:34:16.024Z,98424.34
2022-10-14T00:36:44.870Z,98419.22
2022-10-14T00:39:17.434Z,98424.53
2022-10-14T00:41:47.286Z,98423.69
2022-10-14T00:44:59.209Z,98425.44
2022-10-14T00:47:28.979Z,98421.09
2022-10-14T00:50:01.117Z,98425.50
2022-10-14T00:52:31.333Z,98421.34
2022-10-14T00:55:03.308Z,98423.03
2022-10-14T00:57:32.753Z,98417.91
2022-10-14T01:00:07.204Z,98416.13
2022-10-14T01:02:35.605Z,98422.44
2022-10-14T01:05:08.655Z,98422.56
2022-10-14T01:07:51.285Z,98420.72
2022-10-14T01:10:31.132Z,98420.78
2022-10-14T01:13:15.216Z,98420.13
2022-10-14T01:15:53.903Z,98411.53
2022-10-14T01:18:39.848Z,98415.88
2022-10-14T01:21:26.699Z,98415.06
2022-10-14T01:24:41.729Z,98416.91
2022-10-14T01:27:30.123Z,98408.22
2022-10-14T01:30:20.227Z,98408.41
2022-10-14T01:33:07.194Z,98412.00
2022-10-14T01:36:02.490Z,98405.34
2022-10-14T01:38:35.791Z,98401.91
2022-10-14T01:41:14.605Z,98405.44
2022-10-14T01:43:47.546Z,98398.66
2022-10-14T01:46:20.759Z,98401.38
2022-10-14T01:48:53.428Z,98407.94
2022-10-14T01:51:29.613Z,98410.69
2022-10-14T01:54:03.431Z,98410.63
2022-10-14T01:56:37.033Z,98410.97
2022-10-14T01:59:11.747Z,98401.91
2022-10-14T02:01:41.485Z,98407.56
2022-10-14T02:04:17.021Z,98407.44
2022-10-14T02:06:54.192Z,98408.56
2022-10-14T02:09:31.606Z,98413.31
2022-10-14T02:12:10.212Z,98407.19
2022-10-14T02:14:45.450Z,98413.19
2022-10-14T02:17:22.941Z,98422.09
2022-10-14T02:19:58.113Z,98419.00
2022-10-14T02:22:31.351Z,98414.59
2022-10-14T02:25:21.243Z,98417.47
2022-10-14T02:27:51.775Z,98412.28
2022-10-14T02:30:21.570Z,98416.88
2022-10-14T02:33:00.397Z,98405.41
2022-10-14T02:35:31.754Z,98409.09
2022-10-14T02:38:01.128Z,98414.47
2022-10-14T02:40:36.666Z,98409.28
2022-10-14T02:43:07.901Z,98404.31
2022-10-14T02:45:36.610Z,98401.97
2022-10-14T02:48:07.284Z,98400.94
2022-10-14T02:50:39.034Z,98411.66
2022-10-14T02:53:07.677Z,98398.16
2022-10-14T02:55:36.422Z,98393.34
2022-10-14T02:58:05.702Z,98390.66
2022-10-14T03:00:34.415Z,98384.56
2022-10-14T03:03:04.745Z,98379.09
2022-10-14T03:05:33.552Z,98373.75
2022-10-14T03:08:03.167Z,98363.50
2022-10-14T03:10:34.892Z,98365.03
2022-10-14T03:13:04.601Z,98356.28
2022-10-14T03:15:39.666Z,98355.25
2022-10-14T03:18:10.846Z,98356.00
2022-10-14T03:20:48.549Z,98346.28
2022-10-14T03:23:21.575Z,98341.03
2022-10-14T03:25:53.225Z,98342.69
2022-10-14T03:28:27.077Z,98336.56
2022-10-14T03:31:15.498Z,98336.38
2022-10-14T03:34:21.126Z,98331.03
2022-10-14T03:36:53.462Z,98324.09
2022-10-14T03:39:22.635Z,98332.69
2022-10-14T03:41:52.877Z,98327.63
2022-10-14T03:44:29.589Z,98319.00
2022-10-14T03:47:30.388Z,98318.09
2022-10-14T03:50:00.935Z,98320.66
2022-10-14T03:52:46.845Z,98315.66
2022-10-14T03:55:25.216Z,98322.50
2022-10-14T03:57:55.121Z,98311.31
2022-10-14T04:00:25.259Z,98307.78
2022-10-14T04:03:06.286Z,98301.78
2022-10-14T04:05:42.284Z,98301.88
2022-10-14T04:08:20.864Z,98301.06
2022-10-14T04:10:59.971Z,98296.78
2022-10-14T04:13:33.118Z,98300.13
2022-10-14T04:16:05.286Z,98297.63
2022-10-14T04:18:38.888Z,98297.00
2022-10-14T04:21:13.037Z,98291.81
2022-10-14T04:23:43.832Z,98286.63
2022-10-14T04:26:17.741Z,98275.50
2022-10-14T04:28:47.873Z,98277.16
2022-10-14T04:31:30.607Z,98282.34
2022-10-14T04:34:02.929Z,98277.16
2022-10-14T04:36:38.057Z,98281.63
2022-10-14T04:39:19.080Z,98276.53
2022-10-14T04:41:47.640Z,98281.63
2022-10-14T04:44:19.802Z,98276.63
2022-10-14T04:46:54.691Z,98278.50
2022-10-14T04:49:26.738Z,98275.06
2022-10-14T04:52:06.105Z,98272.56
2022-10-14T04:54:53.198Z,98267.50
2022-10-14T04:57:31.263Z,98270.91
2022-10-14T04:59:59.650Z,98267.50
2022-10-14T05:02:54.455Z,98269.31
2022-10-14T05:05:29.467Z,98264.16
2022-10-14T05:08:01.298Z,98250.56
2022-10-14T05:10:36.209Z,98256.66
2022-10-14T05:13:08.709Z,98251.66
2022-10-14T05:15:44.970Z,98251.78
2022-10-14T05:18:14.200Z,98249.06
2022-10-14T05:20:56.032Z,98236.06
2022-10-14T05:23:27.603Z,98234.28
2022-10-14T05:25:57.529Z,98241.13
2022-10-14T05:28:26.395Z,98238.63
2022-10-14T05:30:56.742Z,98234.28
2022-10-14T05:33:25.695Z,98230.88
2022-10-14T05:35:59.229Z,98233.53
2022-10-14T05:38:34.431Z,98224.66
2022-10-14T05:41:03.966Z,98222.06
2022-10-14T05:43:32.983Z,98212.75
2022-10-14T05:46:04.016Z,98215.59
2022-10-14T05:48:38.021Z,98219.13
2022-10-14T05:51:07.128Z,98219.13
2022-10-14T05:53:40.055Z,98215.69
2022-10-14T05:56:13.490Z,98215.06
2022-10-14T05:58:42.563Z,98217.47
2022-10-14T06:01:12.638Z,98220.78
2022-10-14T06:03:43.304Z,98219.13
2022-10-14T06:06:15.033Z,98220.59
2022-10-14T06:08:45.443Z,98218.94
2022-10-14T06:11:13.843Z,98218.00
2022-10-14T06:13:42.349Z,98215.81
2022-10-14T06:16:11.918Z,98216.25
2022-10-14T06:18:40.565Z,98215.59
2022-10-14T06:21:09.036Z,98215.41
2022-10-14T06:23:37.321Z,98220.78
2022-10-14T06:26:09.739Z,98222.25
2022-10-14T06:28:38.529Z,98219.59
2022-10-14T06:31:08.190Z,98234.66
2022-10-14T06:33:36.780Z,98235.00
2022-10-14T06:36:06.983Z,98226.34
2022-10-14T06:38:35.335Z,98224.66
2022-10-14T06:41:03.653Z,98228.00
2022-10-14T06:43:35.230Z,98217.75
2022-10-14T06:46:04.458Z,98224.47
2022-10-14T06:48:33.044Z,98216.81
2022-10-14T06:51:03.163Z,98222.63
2022-10-14T06:53:31.811Z,98229.47
2022-10-14T06:56:01.998Z,98228.38
2022-10-14T06:58:31.085Z,98219.66
2022-10-14T07:01:05.139Z,98222.06
2022-10-14T07:03:36.394Z,98220.00
2022-10-14T07:06:06.024Z,98222.34
2022-10-14T07:08:34.496Z,98213.53
2022-10-14T07:11:02.900Z,98220.13
2022-10-14T07:13:31.360Z,98215.75
2022-10-14T07:15:59.759Z,98217.22
2022-10-14T07:18:29.482Z,98217.03
2022-10-14T07:20:57.931Z,98216.09
2022-10-14T07:23:26.290Z,98221.19
2022-10-14T07:25:57.977Z,98219.34
2022-10-14T07:28:26.468Z,98214.16
2022-10-14T07:31:00.492Z,98220.06
2022-10-14T07:33:30.225Z,98219.97
2022-10-14T07:36:03.217Z,98224.22
2022-10-14T07:38:32.003Z,98217.94
2022-10-14T07:41:02.242Z,98223.09
2022-10-14T07:43:31.072Z,98222.09
2022-10-14T07:46:03.850Z,98227.16
2022-10-14T07:48:52.197Z,98234.75
2022-10-14T07:51:23.801Z,98237.34
2022-10-14T07:53:54.872Z,98234.56
2022-10-14T07:56:23.557Z,98235.22
2022-10-14T07:58:52.502Z,98229.91
2022-10-14T08:01:21.177Z,98238.16
2022-10-14T08:03:51.809Z,98231.19
2022-10-14T08:06:20.405Z,98228.59
2022-10-14T08:08:49.027Z,98226.94
2022-10-14T08:11:21.481Z,98222.41
2022-10-14T08:13:50.193Z,98218.22
2022-10-14T08:16:21.451Z,98212.03
2022-10-14T08:18:51.805Z,98211.81
2022-10-14T08:21:21.963Z,98222.09
2022-10-14T08:23:50.539Z,98221.16
2022-10-14T08:26:24.866Z,98215.78
2022-10-14T08:28:53.445Z,98213.91
2022-10-14T08:31:22.709Z,98213.00
2022-10-14T08:33:52.746Z,98210.22
2022-10-14T08:36:22.420Z,98206.72
2022-10-14T08:38:53.602Z,98210.22
2022-10-14T08:41:37.331Z,98200.59
2022-10-14T08:44:17.163Z,98200.59
2022-10-14T08:46:51.976Z,98191.88
2022-10-14T08:49:30.207Z,98200.28
2022-10-14T08:52:03.941Z,98196.50
2022-10-14T08:54:38.662Z,98193.78
2022-10-14T08:57:14.010Z,98195.34
2022-10-14T08:59:43.926Z,98195.13
2022-10-14T09:02:25.981Z,98205.31
2022-10-14T09:04:56.718Z,98202.22
2022-10-14T09:07:25.130Z,98195.25
2022-10-14T09:09:59.559Z,98188.94
2022-10-14T09:12:32.081Z,98188.72
2022-10-14T09:15:09.839Z,98191.88
2022-10-14T09:17:43.970Z,98184.59
2022-10-14T09:20:20.626Z,98189.78
2022-10-14T09:23:02.169Z,98187.19
2022-10-14T09:25:34.423Z,98197.16
2022-10-14T09:28:03.110Z,98181.50
2022-10-14T09:30:37.523Z,98182.13
2022-10-14T09:33:06.442Z,98182.94
2022-10-14T09:35:38.640Z,98175.66
2022-10-14T09:38:07.451Z,98179.81
2022-10-14T09:40:39.427Z,98184.00
2022-10-14T09:43:18.021Z,98175.97
2022-10-14T09:45:55.118Z,98168.41
2022-10-14T09:48:33.604Z,98163.22
2022-10-14T09:51:06.957Z,98165.38
2022-10-14T09:53:42.201Z,98168.91
2022-10-14T09:56:11.453Z,98164.44
2022-10-14T09:58:46.738Z,98161.72
2022-10-14T10:01:40.484Z,98160.69
2022-10-14T10:04:28.877Z,98159.44
2022-10-14T10:07:01.536Z,98150.50
2022-10-14T10:09:30.226Z,98154.19
2022-10-14T10:11:58.746Z,98145.03
2022-10-14T10:14:33.407Z,98145.88
2022-10-14T10:17:20.281Z,98139.94
2022-10-14T10:19:51.480Z,98140.47
2022-10-14T10:22:27.565Z,98136.72
2022-10-14T10:25:26.342Z,98132.84
2022-10-14T10:27:58.477Z,98124.81
2022-10-14T10:30:29.739Z,98125.44
2022-10-14T10:33:21.294Z,98111.16
2022-10-14T10:36:08.319Z,98117.69
2022-10-14T10:38:49.835Z,98120.03
2022-10-14T10:41:38.992Z,98114.53
2022-10-14T10:44:34.735Z,98106.16
2022-10-14T10:47:24.528Z,98098.84
2022-10-14T10:50:19.277Z,98095.91
2022-10-14T10:53:04.153Z,98086.72
2022-10-14T10:55:42.748Z,98079.38
2022-10-14T10:58:29.744Z,98082.56
2022-10-14T11:01:09.108Z,98078.94
2022-10-14T11:03:56.888Z,98080.59
2022-10-14T11:06:50.162Z,98076.69
2022-10-14T11:09:50.802Z,98075.19
2022-10-14T11:12:27.292Z,98070.34
2022-10-14T11:15:27.799Z,98064.41
2022-10-14T11:23:08.027Z,98061.69
2022-10-14T11:25:49.506Z,98065.22
2022-10-14T11:28:30.225Z,98061.69
2022-10-14T11:31:06.831Z,98070.81
2022-10-14T11:34:03.448Z,98065.47
2022-10-14T11:36:42.141Z,98072.41
2022-10-14T11:39:29.614Z,98062.56
2022-10-14T11:42:26.248Z,98059.72
2022-10-14T11:45:23.060Z,98052.03
2022-10-14T11:48:09.322Z,98048.72
2022-10-14T11:50:42.987Z,98052.25
2022-10-14T11:53:19.890Z,98047.78
2022-10-14T11:55:58.040Z,98044.03
2022-10-14T11:58:30.602Z,98042.13
2022-10-14T12:01:05.220Z,98042.63
2022-10-14T12:03:51.470Z,98027.25
2022-10-14T12:06:27.342Z,98026.19
2022-10-14T12:09:00.323Z,98023.22
2022-10-14T12:11:37.158Z,98012.38
2022-10-14T12:14:11.417Z,98006.94
2022-10-14T12:16:45.608Z,98002.19
2022-10-14T12:19:21.964Z,98003.72
2022-10-14T12:22:01.196Z,97995.13
2022-10-14T12:24:38.560Z,97998.66
2022-10-14T12:27:12.650Z,97999.94
2022-10-14T12:29:44.786Z,97997.34
2022-10-14T12:32:25.647Z,97997.94
2022-10-14T12:34:55.755Z,97998.16
2022-10-14T12:37:52.705Z,97985.34
2022-10-14T12:40:29.875Z,97978.13
2022-10-14T12:43:26.213Z,97975.59
2022-10-14T12:46:14.091Z,97983.53
2022-10-14T12:48:51.397Z,97983.28
2022-10-14T12:51:23.856Z,97980.94
2022-10-14T12:54:07.165Z,97972.03
2022-10-14T12:56:40.785Z,97969.41
2022-10-14T12:59:25.644Z,97966.56
2022-10-14T13:01:59.881Z,97965.88
2022-10-14T13:04:30.230Z,97968.25
2022-10-14T13:07:44.242Z,97960.88
2022-10-14T13:10:47.306Z,97955.53
2022-10-14T13:13:52.476Z,97952.81
2022-10-14T13:17:00.154Z,97949.19
2022-10-14T13:19:45.025Z,97964.44
2022-10-14T13:22:42.230Z,97955.91
2022-10-14T13:25:21.976Z,97953.06
2022-10-14T13:28:06.880Z,97963.50
2022-10-14T13:30:45.221Z,97959.09
2022-10-14T13:33:21.853Z,97949.59
2022-10-14T13:36:08.810Z,97949.59
2022-10-14T13:38:44.612Z,97948.75
2022-10-14T13:41:28.350Z,97942.47
2022-10-14T13:44:00.904Z,97948.13
2022-10-14T13:46:34.626Z,97953.72
2022-10-14T13:51:53.065Z,97951.09
2022-10-14T13:54:24.410Z,97952.28
2022-10-14T14:00:38.065Z,97959.59
2022-10-14T14:02:48.143Z,97948.59
2022-10-14T14:05:23.613Z,97942.78
2022-10-14T14:11:11.106Z,97938.78
2022-10-14T14:13:36.311Z,97940.09
2022-10-14T14:16:04.796Z,97935.91
2022-10-14T14:18:55.715Z,97939.16
2022-10-14T14:21:30.152Z,97935.16
2022-10-14T14:24:02.190Z,97933.50
2022-10-14T14:26:36.055Z,97924.97
2022-10-14T14:29:07.700Z,97932.28
2022-10-14T14:34:25.341Z,97930.69
2022-10-14T14:36:58.044Z,97937.56
2022-10-14T14:39:33.279Z,97929.91
2022-10-14T14:42:02.100Z,97933.94
2022-10-14T14:44:34.180Z,97936.69
2022-10-14T14:47:05.271Z,97932.75
2022-10-14T14:49:38.361Z,97924.94
2022-10-14T14:52:07.865Z,97924.94
2022-10-14T14:54:46.879Z,97918.47
2022-10-14T14:57:19.604Z,97922.56
2022-10-14T15:00:00.037Z,97917.72
2022-10-14T15:02:29.445Z,97922.13
2022-10-14T15:05:02.950Z,97924.63
2022-10-14T15:07:31.781Z,97919.63
2022-10-14T15:10:04.884Z,97921.28
2022-10-14T15:12:39.133Z,97921.28
2022-10-14T15:15:26.140Z,97924.56
2022-10-14T15:18:14.887Z,97925.66
2022-10-14T15:20:44.333Z,97924.84
2022-10-14T15:23:42.924Z,97929.56
2022-10-14T15:26:31.652Z,97928.88
2022-10-14T15:29:16.255Z,97936.91
2022-10-14T15:31:46.535Z,97932.41
2022-10-14T15:34:22.076Z,97924.03
2022-10-14T15:36:54.030Z,97920.56
2022-10-14T15:39:23.350Z,97918.09
2022-10-14T15:41:53.113Z,97916.22
2022-10-14T15:44:21.324Z,97911.59
2022-10-14T15:47:08.740Z,97902.94
2022-10-14T15:49:44.123Z,97901.88
2022-10-14T15:52:16.500Z,97904.03
2022-10-14T15:54:45.778Z,97901.19
2022-10-14T15:57:17.281Z,97901.19
2022-10-14T15:59:49.189Z,97909.69
2022-10-14T16:02:21.379Z,97902.13
2022-10-14T16:05:20.869Z,97905.31
2022-10-14T16:07:41.194Z,97888.06
2022-10-14T16:10:13.150Z,97909.47
2022-10-14T16:12:43.786Z,97890.81
2022-10-14T16:15:34.797Z,97891.72
2022-10-14T16:18:03.317Z,97902.41
2022-10-14T16:20:32.189Z,97899.06
2022-10-14T16:23:01.385Z,97896.84
2022-10-14T16:25:38.767Z,97893.28
2022-10-14T16:28:10.209Z,97892.69
2022-10-14T16:30:41.573Z,97898.72
2022-10-14T16:35:48.124Z,97905.84
2022-10-14T16:38:16.710Z,97914.00
2022-10-14T16:40:45.110Z,97909.03
2022-10-14T16:43:15.959Z,97908.06
2022-10-14T16:45:44.425Z,97910.81
2022-10-14T16:48:14.630Z,97907.47
2022-10-14T16:50:43.102Z,97908.66
2022-10-14T16:53:37.197Z,97906.88
2022-10-14T16:56:27.551Z,97895.78
2022-10-14T16:58:57.817Z,97907.13
2022-10-14T17:01:26.794Z,97904.19
2022-10-14T17:03:56.472Z,97917.28
2022-10-14T17:06:25.582Z,97918.38
2022-10-14T17:08:54.859Z,97908.44
2022-10-14T17:11:23.792Z,97911.50
2022-10-14T17:13:53.024Z,97909.47
2022-10-14T17:16:22.996Z,97907.38
2022-10-14T17:18:52.814Z,97911.16
2022-10-14T17:21:21.600Z,97910.94
2022-10-14T17:23:50.247Z,97901.56
2022-10-14T17:26:19.930Z,97897.19
2022-10-14T17:28:50.499Z,97899.06
2022-10-14T17:31:22.669Z,97893.88
2022-10-14T17:33:52.161Z,97883.38
2022-10-14T17:36:23.097Z,97888.44
2022-10-14T17:38:52.724Z,97894.47
2022-10-14T17:41:21.024Z,97886.81
2022-10-14T17:43:50.807Z,97892.22
2022-10-14T17:46:23.293Z,97890.59
2022-10-14T17:48:56.044Z,97892.22
2022-10-14T17:51:25.557Z,97900.16
2022-10-14T17:53:55.190Z,97896.59
2022-10-14T17:56:23.605Z,97908.06
2022-10-14T17:58:55.461Z,97900.25
2022-10-14T18:01:37.349Z,97904.53
2022-10-14T18:04:15.033Z,97897.41
2022-10-14T18:06:46.249Z,97898.97
2022-10-14T18:09:14.745Z,97897.53
2022-10-14T18:14:34.406Z,97894.00
2022-10-14T18:17:02.974Z,97887.97
2022-10-14T18:19:32.816Z,97894.94
2022-10-14T18:22:01.744Z,97887.28
2022-10-14T18:24:30.231Z,97875.22
2022-10-14T18:26:58.619Z,97879.22
2022-10-14T18:29:27.187Z,97875.94
2022-10-14T18:31:55.513Z,97872.38
2022-10-14T18:34:25.441Z,97871.78
2022-10-14T18:36:55.285Z,97869.78
2022-10-14T18:39:24.076Z,97866.34
2022-10-14T18:41:52.410Z,97863.38
2022-10-14T18:44:20.622Z,97864.13
2022-10-14T18:46:49.153Z,97859.63
2022-10-14T18:49:17.562Z,97851.13
2022-10-14T18:51:46.766Z,97855.59
2022-10-14T18:54:18.861Z,97852.31
2022-10-14T18:56:48.040Z,97853.34
2022-10-14T18:59:19.647Z,97843.09
2022-10-14T19:01:52.731Z,97849.47
2022-10-14T19:04:24.238Z,97846.16
2022-10-14T19:06:52.809Z,97845.66
2022-10-14T19:09:28.952Z,97831.47
2022-10-14T19:11:58.871Z,97834.88
2022-10-14T19:14:28.760Z,97829.31
2022-10-14T19:16:57.097Z,97819.75
2022-10-14T19:19:25.578Z,97824.56
2022-10-14T19:21:56.366Z,97820.91
2022-10-14T19:24:26.075Z,97814.56
2022-10-14T19:26:55.910Z,97803.31
2022-10-14T19:29:24.699Z,97808.50
2022-10-14T19:31:54.509Z,97802.84
2022-10-14T19:34:26.676Z,97806.41
2022-10-14T19:36:55.772Z,97804.03
2022-10-14T19:39:25.364Z,97797.41
2022-10-14T19:41:53.707Z,97793.25
2022-10-14T19:44:22.184Z,97791.25
2022-10-14T19:46:50.506Z,97793.38
2022-10-14T19:49:19.032Z,97782.75
2022-10-14T19:51:47.306Z,97781.56
2022-10-14T19:54:15.895Z,97780.34
2022-10-14T19:56:45.481Z,97779.53
2022-10-14T19:59:14.153Z,97777.97
2022-10-14T20:01:42.538Z,97772.53
2022-10-14T20:04:11.022Z,97771.72
2022-10-14T20:06:40.159Z,97766.03
2022-10-14T20:09:09.559Z,97760.72
2022-10-14T20:11:37.914Z,97762.38
2022-10-14T20:14:08.120Z,97759.06
2022-10-14T20:16:36.629Z,97752.25
2022-10-14T20:19:06.013Z,97748.22
2022-10-14T20:21:34.656Z,97754.94
2022-10-14T20:24:03.464Z,97740.66
2022-10-14T20:26:32.112Z,97744.69
2022-10-14T20:29:00.624Z,97733.44
2022-10-14T20:31:30.719Z,97735.09
2022-10-14T20:33:59.160Z,97735.31
2022-10-14T20:36:27.706Z,97729.50
2022-10-14T20:38:56.172Z,97728.81
2022-10-14T20:41:27.419Z,97728.91
2022-10-14T20:43:57.055Z,97717.25
2022-10-14T20:46:25.994Z,97720.31
2022-10-14T20:48:57.200Z,97719.28
2022-10-14T20:51:26.284Z,97716.91
2022-10-14T20:54:03.843Z,97719.63
2022-10-14T20:56:34.707Z,97711.84
2022-10-14T20:59:06.402Z,97716.19
2022-10-14T21:01:37.563Z,97714.66
2022-10-14T21:04:09.074Z,97711.31
2022-10-14T21:06:38.898Z,97698.47
2022-10-14T21:09:07.715Z,97707.00
2022-10-14T21:11:36.490Z,97698.59
2022-10-14T21:14:05.560Z,97697.88
2022-10-14T21:16:36.675Z,97703.06
2022-10-14T21:19:09.384Z,97695.75
2022-10-14T21:21:43.212Z,97691.03
2022-10-14T21:24:16.571Z,97688.44
2022-10-14T21:26:45.664Z,97680.75
2022-10-14T21:29:14.549Z,97681.63
2022-10-14T21:31:43.364Z,97680.69
2022-10-14T21:34:14.301Z,97678.19
2022-10-14T21:36:43.327Z,97677.47
2022-10-14T21:39:14.627Z,97675.00
2022-10-14T21:41:43.431Z,97662.75
2022-10-14T21:44:16.227Z,97659.44
2022-10-14T21:46:44.764Z,97657.69
2022-10-14T21:49:14.951Z,97655.69
2022-10-14T21:51:43.303Z,97643.19
2022-10-14T21:54:12.771Z,97646.03
2022-10-14T21:56:41.082Z,97644.75
2022-10-14T21:59:09.784Z,97644.84
2022-10-14T22:01:38.301Z,97642.25
2022-10-14T22:04:07.923Z,97631.19
2022-10-14T22:06:37.832Z,97625.41
2022-10-14T22:09:08.713Z,97628.22
2022-10-14T22:11:39.665Z,97627.19
2022-10-14T22:14:12.442Z,97624.44
2022-10-14T22:16:41.406Z,97630.25
2022-10-14T22:19:10.716Z,97614.22
2022-10-14T22:21:43.306Z,97615.13
2022-10-14T22:24:12.329Z,97602.88
2022-10-14T22:26:41.470Z,97612.09
2022-10-14T22:29:13.996Z,97604.53
2022-10-14T22:31:42.777Z,97604.31
2022-10-14T22:34:13.761Z,97598.19
2022-10-14T22:36:43.934Z,97602.66
2022-10-14T22:39:15.225Z,97597.22
2022-10-14T22:41:43.727Z,97602.41
2022-10-14T22:44:12.181Z,97599.13
2022-10-14T22:46:41.464Z,97603.25
2022-10-14T22:49:09.770Z,97583.56
2022-10-14T22:51:42.877Z,97584.50
2022-10-14T22:54:11.966Z,97600.53
2022-10-14T22:56:40.797Z,97587.72
2022-10-14T22:59:11.831Z,97586.03
2022-10-14T23:01:41.484Z,97581.44
2022-10-14T23:04:11.123Z,97575.31
2022-10-14T23:06:43.563Z,97562.47
2022-10-14T23:09:13.227Z,97568.13
2022-10-14T23:11:41.647Z,97565.66
2022-10-14T23:14:10.488Z,97563.06
2022-10-14T23:16:40.383Z,97563.19
2022-10-14T23:19:08.989Z,97556.34
2022-10-14T23:21:39.093Z,97558.59
2022-10-14T23:24:12.378Z,97555.16
2022-10-14T23:26:40.944Z,97562.13
2022-10-14T23:29:12.429Z,97557.88
2022-10-14T23:31:42.187Z,97555.16
2022-10-14T23:34:14.571Z,97552.56
2022-10-14T23:36:43.660Z,97545.06
2022-10-14T23:39:13.518Z,97541.97
2022-10-14T23:41:41.769Z,97548.47
2022-10-14T23:44:12.436Z,97543.38
2022-10-14T23:46:40.665Z,97540.09
2022-10-14T23:49:25.075Z,97544.19
2022-10-14T23:51:53.835Z,97545.88
2022-10-14T23:54:23.889Z,97547.28
2022-10-14T23:56:52.347Z,97539.38
2022-10-14T23:59:20.669Z,97536.09
